TimeEST,TemperatureF,Dew PointF,Humidity,Sea Level PressureIn,VisibilityMPH,Wind Direction,Wind SpeedMPH,Gust SpeedMPH,PrecipitationIn,Events,Conditions,WindDirDegrees,DateUTC
12:54 AM,64.4,57.2,77,29.64,10.0,South,23.0,35.7,N/A,,Clear,180,2013-01-30 05:54:00
1:54 AM,64.9,57.0,75,29.57,10.0,South,25.3,35.7,N/A,,Clear,180,2013-01-30 06:54:00
2:54 AM,66.0,57.0,73,29.54,10.0,South,23.0,40.3,N/A,,Scattered Clouds,180,2013-01-30 07:54:00
3:54 AM,66.9,57.9,73,29.51,10.0,South,27.6,42.6,N/A,,Mostly Cloudy,180,2013-01-30 08:54:00
4:54 AM,66.0,57.9,75,29.42,10.0,South,31.1,42.6,N/A,,Mostly Cloudy,170,2013-01-30 09:54:00
5:54 AM,66.9,57.0,70,29.40,10.0,South,25.3,38.0,N/A,,Overcast,180,2013-01-30 10:54:00
6:16 AM,62.6,59.0,88,29.52,1.5,West,31.1,47.2,0.03,Rain,Rain,270,2013-01-30 11:16:00
6:21 AM,57.2,57.2,100,29.50,0.8,West,17.3,47.2,0.28,Rain,Heavy Rain,260,2013-01-30 11:21:00
6:26 AM,57.2,57.2,100,29.50,1.0,West,16.1,31.1,0.38,Rain,Heavy Rain,270,2013-01-30 11:26:00
6:30 AM,57.2,57.2,100,29.50,3.0,West,13.8,24.2,0.40,Rain,Heavy Rain,260,2013-01-30 11:30:00
6:50 AM,57.2,57.2,100,29.51,5.0,WNW,15.0,31.1,0.46,Rain,Rain,300,2013-01-30 11:50:00
6:54 AM,57.2,57.2,100,29.52,6.0,WNW,19.6,31.1,N/A,Rain,Rain,300,2013-01-30 11:54:00
7:02 AM,57.2,55.4,94,29.55,8.0,WNW,18.4,29.9,0.01,Rain,Rain,290,2013-01-30 12:02:00
7:54 AM,54.0,53.1,97,29.56,8.0,Calm,Calm,-,0.09,Rain,Light Rain,0,2013-01-30 12:54:00
8:54 AM,53.1,53.1,100,29.58,7.0,SSE,5.8,-,0.12,Rain,Rain,150,2013-01-30 13:54:00
9:54 AM,54.0,53.1,97,29.54,10.0,SSE,11.5,-,0.04,Rain,Light Rain,150,2013-01-30 14:54:00
10:54 AM,54.0,54.0,100,29.52,8.0,South,12.7,-,0.07,Rain,Light Rain,170,2013-01-30 15:54:00
11:54 AM,55.0,53.1,93,29.48,10.0,South,16.1,28.8,0.07,Rain,Light Rain,170,2013-01-30 16:54:00
12:54 PM,55.0,54.0,96,29.45,10.0,South,13.8,20.7,0.02,Rain,Light Rain,180,2013-01-30 17:54:00
1:09 PM,55.4,53.6,94,29.44,10.0,South,12.7,-,0.00,Rain,Light Rain,190,2013-01-30 18:09:00
1:27 PM,55.4,53.6,94,29.45,10.0,South,16.1,-,0.00,,Overcast,190,2013-01-30 18:27:00
1:34 PM,55.4,53.6,94,29.43,10.0,South,16.1,25.3,0.00,Rain,Light Rain,190,2013-01-30 18:34:00
1:54 PM,55.0,53.1,93,29.41,10.0,South,13.8,-,0.00,,Mostly Cloudy,180,2013-01-30 18:54:00
2:54 PM,54.0,50.0,86,29.40,10.0,South,19.6,26.5,N/A,,Mostly Cloudy,190,2013-01-30 19:54:00
3:39 PM,53.6,50.0,88,29.41,10.0,SSW,17.3,23.0,N/A,,Overcast,210,2013-01-30 20:39:00
3:54 PM,53.1,48.9,86,29.42,10.0,SSW,15.0,25.3,N/A,,Overcast,210,2013-01-30 20:54:00
4:54 PM,52.0,46.9,83,29.39,10.0,SSW,16.1,23.0,N/A,,Overcast,200,2013-01-30 21:54:00
5:54 PM,51.1,46.9,86,29.37,10.0,South,16.1,23.0,0.00,,Overcast,190,2013-01-30 22:54:00
6:54 PM,51.1,45.0,80,29.36,10.0,SSW,20.7,32.2,N/A,,Overcast,210,2013-01-30 23:54:00
7:17 PM,44.6,42.8,93,29.41,10.0,West,17.3,31.1,0.02,Rain,Light Rain,280,2013-01-31 00:17:00
7:33 PM,44.6,41.0,87,29.43,10.0,West,21.9,36.8,0.02,Rain,Light Rain,260,2013-01-31 00:33:00
7:42 PM,42.8,39.2,87,29.45,10.0,West,24.2,34.5,0.03,Rain,Light Rain,270,2013-01-31 00:42:00
7:46 PM,42.8,39.2,87,29.45,10.0,West,20.7,34.5,0.04,Rain,Light Rain,280,2013-01-31 00:46:00
7:54 PM,42.1,41.0,96,29.45,9.0,West,15.0,26.5,0.04,Rain,Light Rain,280,2013-01-31 00:54:00
8:04 PM,42.8,39.2,87,29.46,10.0,West,13.8,27.6,0.00,Rain,Light Rain,280,2013-01-31 01:04:00
8:29 PM,41.0,39.2,93,29.47,10.0,WNW,23.0,33.4,0.00,Rain,Light Rain,290,2013-01-31 01:29:00
8:54 PM,37.9,36.0,93,29.49,10.0,West,23.0,33.4,0.00,Rain,Light Rain,280,2013-01-31 01:54:00
9:27 PM,37.4,35.6,93,29.53,9.0,West,17.3,34.5,0.01,Rain,Light Rain,270,2013-01-31 02:27:00
9:36 PM,37.4,35.6,93,29.54,8.0,West,18.4,26.5,0.02,Rain,Light Rain,270,2013-01-31 02:36:00
9:51 PM,37.4,33.8,87,29.55,10.0,West,19.6,26.5,0.02,Rain,Light Rain,270,2013-01-31 02:51:00
9:54 PM,37.0,33.1,86,29.55,10.0,West,18.4,26.5,0.02,Rain,Light Rain,270,2013-01-31 02:54:00
10:54 PM,34.0,28.9,82,29.60,10.0,West,26.5,38.0,0.00,,Overcast,270,2013-01-31 03:54:00
11:54 PM,33.1,27.0,78,29.65,10.0,West,21.9,33.4,0.00,,Overcast,270,2013-01-31 04:54:00